sensor_id;sensor_type;location;lat;lon;timestamp;pressure;altitude;pressure_sealevel;temperature;humidity
62293;BME280;48292;47.724;18.992;2022-12-16T04:35:59;96061.37;;;1.63;100.0
62293;BME280;48292;47.724;18.992;2022-12-16T04:41:01;96061.37;;;1.63;100.0
62293;BME280;48292;47.724;18.992;2022-12-16T04:46:03;96041.55;;;1.64;100.0
62293;BME280;48292;47.724;18.992;2022-12-16T04:51:05;96056.55;;;1.72;100.0
62293;BME280;48292;47.724;18.992;2022-12-16T04:56:07;96056.55;;;1.72;100.0
62293;BME280;48292;47.724;18.992;2022-12-16T05:01:09;96053.77;;;1.62;100.0
62293;BME280;48292;47.724;18.992;2022-12-16T05:06:12;96053.77;;;1.62;100.0
62293;BME280;48292;47.724;18.992;2022-12-16T05:11:14;96041.96;;;1.71;100.0
62293;BME280;48292;47.724;18.992;2022-12-16T05:16:16;96041.96;;;1.71;100.0
62293;BME280;48292;47.724;18.992;2022-12-16T05:21:18;96040.72;;;1.75;100.0
62293;BME280;48292;47.724;18.992;2022-12-16T05:26:19;96040.72;;;1.75;100.0
62293;BME280;48292;47.724;18.992;2022-12-16T05:31:21;96043.65;;;1.79;100.0
62293;BME280;48292;47.724;18.992;2022-12-16T05:36:23;96043.65;;;1.79;100.0
62293;BME280;48292;47.724;18.992;2022-12-16T05:41:25;96029.43;;;1.96;100.0
62293;BME280;48292;47.724;18.992;2022-12-16T05:46:27;96022.45;;;1.97;100.0
62293;BME280;48292;47.724;18.992;2022-12-16T05:51:29;96022.45;;;1.97;100.0
62293;BME280;48292;47.724;18.992;2022-12-16T05:56:31;96050.11;;;1.91;100.0
62293;BME280;48292;47.724;18.992;2022-12-16T06:01:33;96050.11;;;1.91;100.0
62293;BME280;48292;47.724;18.992;2022-12-16T06:06:36;96056.72;;;1.88;100.0
62293;BME280;48292;47.724;18.992;2022-12-16T06:11:38;96056.72;;;1.88;100.0
62293;BME280;48292;47.724;18.992;2022-12-16T06:16:40;96063.04;;;1.85;100.0
62293;BME280;48292;47.724;18.992;2022-12-16T06:21:42;96063.04;;;1.85;100.0
62293;BME280;48292;47.724;18.992;2022-12-16T06:26:44;96037.82;;;1.72;100.0
62293;BME280;48292;47.724;18.992;2022-12-16T06:31:46;96037.82;;;1.72;100.0
62293;BME280;48292;47.724;18.992;2022-12-16T06:36:48;96057.87;;;1.77;100.0
62293;BME280;48292;47.724;18.992;2022-12-16T06:41:50;96059.15;;;1.8;100.0
62293;BME280;48292;47.724;18.992;2022-12-16T06:46:52;96059.15;;;1.8;100.0
62293;BME280;48292;47.724;18.992;2022-12-16T06:51:54;96060.83;;;1.6;100.0
62293;BME280;48292;47.724;18.992;2022-12-16T06:56:56;96060.83;;;1.6;100.0
62293;BME280;48292;47.724;18.992;2022-12-16T07:01:59;96065.07;;;1.49;100.0
62293;BME280;48292;47.724;18.992;2022-12-16T07:07:02;96065.07;;;1.49;100.0
62293;BME280;48292;47.724;18.992;2022-12-16T07:12:04;96089.04;;;1.67;100.0
62293;BME280;48292;47.724;18.992;2022-12-16T07:17:05;96089.04;;;1.67;100.0
62293;BME280;48292;47.724;18.992;2022-12-16T07:22:08;96088.6;;;1.26;100.0
62293;BME280;48292;47.724;18.992;2022-12-16T07:27:10;96088.6;;;1.26;100.0
62293;BME280;48292;47.724;18.992;2022-12-16T07:32:12;96073.82;;;1.6;100.0
62293;BME280;48292;47.724;18.992;2022-12-16T07:37:14;96059.5;;;1.73;100.0
62293;BME280;48292;47.724;18.992;2022-12-16T07:42:16;96059.5;;;1.73;100.0
62293;BME280;48292;47.724;18.992;2022-12-16T07:47:18;96045.75;;;1.73;100.0
62293;BME280;48292;47.724;18.992;2022-12-16T07:52:20;96045.75;;;1.73;100.0
62293;BME280;48292;47.724;18.992;2022-12-16T07:57:22;96053.3;;;1.79;100.0
62293;BME280;48292;47.724;18.992;2022-12-16T08:02:24;96053.3;;;1.79;100.0
62293;BME280;48292;47.724;18.992;2022-12-16T08:07:27;96072.16;;;1.84;100.0
62293;BME280;48292;47.724;18.992;2022-12-16T08:12:29;96072.16;;;1.84;100.0
62293;BME280;48292;47.724;18.992;2022-12-16T08:17:30;96092.41;;;1.74;100.0
62293;BME280;48292;47.724;18.992;2022-12-16T08:22:32;96092.41;;;1.74;100.0
62293;BME280;48292;47.724;18.992;2022-12-16T08:27:34;96111.3;;;1.81;100.0
62293;BME280;48292;47.724;18.992;2022-12-16T08:32:36;96131.33;;;1.65;100.0
62293;BME280;48292;47.724;18.992;2022-12-16T08:37:38;96131.33;;;1.65;100.0
62293;BME280;48292;47.724;18.992;2022-12-16T08:42:39;96163.06;;;1.69;100.0
62293;BME280;48292;47.724;18.992;2022-12-16T08:47:41;96163.06;;;1.69;100.0
62293;BME280;48292;47.724;18.992;2022-12-16T08:52:43;96141.61;;;1.43;100.0
62293;BME280;48292;47.724;18.992;2022-12-16T09:02:51;96114.23;;;1.85;100.0
62293;BME280;48292;47.724;18.992;2022-12-16T09:07:57;96114.23;;;1.85;100.0
62293;BME280;48292;47.724;18.992;2022-12-16T09:13:04;96108.35;;;2.01;100.0
62293;BME280;48292;47.724;18.992;2022-12-16T09:18:05;96130.56;;;2.48;100.0
62293;BME280;48292;47.724;18.992;2022-12-16T09:23:07;96130.56;;;2.48;100.0
62293;BME280;48292;47.724;18.992;2022-12-16T09:28:10;96159.59;;;2.49;100.0
62293;BME280;48292;47.724;18.992;2022-12-16T09:33:12;96159.59;;;2.49;100.0
62293;BME280;48292;47.724;18.992;2022-12-16T09:38:13;96164.33;;;1.98;100.0
62293;BME280;48292;47.724;18.992;2022-12-16T09:43:22;96164.33;;;1.98;100.0
62293;BME280;48292;47.724;18.992;2022-12-16T09:48:26;96187.56;;;2.18;100.0
62293;BME280;48292;47.724;18.992;2022-12-16T09:53:30;96187.56;;;2.18;100.0
62293;BME280;48292;47.724;18.992;2022-12-16T09:58:38;96187.09;;;2.03;100.0
62293;BME280;48292;47.724;18.992;2022-12-16T10:03:41;96187.09;;;2.03;100.0
62293;BME280;48292;47.724;18.992;2022-12-16T10:08:45;96190.91;;;2.39;100.0
62293;BME280;48292;47.724;18.992;2022-12-16T10:13:52;96198.75;;;2.42;100.0
62293;BME280;48292;47.724;18.992;2022-12-16T10:18:58;96198.75;;;2.42;100.0
62293;BME280;48292;47.724;18.992;2022-12-16T10:24:04;96211.26;;;2.45;100.0
62293;BME280;48292;47.724;18.992;2022-12-16T10:29:12;96211.26;;;2.45;100.0
62293;BME280;48292;47.724;18.992;2022-12-16T10:34:17;96210.77;;;2.22;100.0
62293;BME280;48292;47.724;18.992;2022-12-16T10:39:23;96210.77;;;2.22;100.0
62293;BME280;48292;47.724;18.992;2022-12-16T10:44:30;96216.84;;;2.08;100.0
62293;BME280;48292;47.724;18.992;2022-12-16T10:49:33;96216.84;;;2.08;100.0
62293;BME280;48292;47.724;18.992;2022-12-16T10:54:38;96210.69;;;2.28;100.0
62293;BME280;48292;47.724;18.992;2022-12-16T10:59:40;96195.38;;;2.36;100.0
62293;BME280;48292;47.724;18.992;2022-12-16T11:04:43;96195.38;;;2.36;100.0
62293;BME280;48292;47.724;18.992;2022-12-16T11:09:47;96209.56;;;2.22;100.0
62293;BME280;48292;47.724;18.992;2022-12-16T11:14:50;96209.56;;;2.22;100.0
62293;BME280;48292;47.724;18.992;2022-12-16T11:20:06;96220.33;;;2.65;100.0
62293;BME280;48292;47.724;18.992;2022-12-16T11:25:13;96220.33;;;2.65;100.0
62293;BME280;48292;47.724;18.992;2022-12-16T11:30:16;96239.17;;;2.83;100.0
62293;BME280;48292;47.724;18.992;2022-12-16T11:35:19;96239.17;;;2.83;100.0
62293;BME280;48292;47.724;18.992;2022-12-16T11:40:23;96235.0;;;2.5;100.0
62293;BME280;48292;47.724;18.992;2022-12-16T11:45:25;96234.83;;;2.71;100.0
62293;BME280;48292;47.724;18.992;2022-12-16T11:50:27;96234.83;;;2.71;100.0
62293;BME280;48292;47.724;18.992;2022-12-16T11:55:30;96260.11;;;2.89;100.0
62293;BME280;48292;47.724;18.992;2022-12-16T12:00:37;96260.11;;;2.89;100.0
62293;BME280;48292;47.724;18.992;2022-12-16T12:05:45;96263.68;;;2.81;100.0
62293;BME280;48292;47.724;18.992;2022-12-16T12:10:52;96263.68;;;2.81;100.0
62293;BME280;48292;47.724;18.992;2022-12-16T12:16:00;96285.05;;;2.65;100.0
62293;BME280;48292;47.724;18.992;2022-12-16T12:21:04;96285.05;;;2.65;100.0
62293;BME280;48292;47.724;18.992;2022-12-16T12:26:10;96316.48;;;2.63;100.0
62293;BME280;48292;47.724;18.992;2022-12-16T12:31:16;96316.48;;;2.63;100.0
62293;BME280;48292;47.724;18.992;2022-12-16T12:36:20;96307.58;;;2.41;100.0
62293;BME280;48292;47.724;18.992;2022-12-16T12:41:26;96290.88;;;2.36;100.0
62293;BME280;48292;47.724;18.992;2022-12-16T12:46:30;96290.88;;;2.36;100.0
62293;BME280;48292;47.724;18.992;2022-12-16T12:51:35;96274.63;;;2.47;100.0
62293;BME280;48292;47.724;18.992;2022-12-16T12:56:40;96274.63;;;2.47;100.0
62293;BME280;48292;47.724;18.992;2022-12-16T13:01:45;96270.15;;;2.55;100.0
62293;BME280;48292;47.724;18.992;2022-12-16T13:06:49;96270.15;;;2.55;100.0
62293;BME280;48292;47.724;18.992;2022-12-16T13:17:03;96273.58;;;2.54;100.0
62293;BME280;48292;47.724;18.992;2022-12-16T13:27:11;96293.61;;;2.44;100.0
62293;BME280;48292;47.724;18.992;2022-12-16T13:32:15;96293.61;;;2.44;100.0
62293;BME280;48292;47.724;18.992;2022-12-16T13:37:19;96289.27;;;2.45;100.0
62293;BME280;48292;47.724;18.992;2022-12-16T13:42:31;96289.27;;;2.45;100.0
62293;BME280;48292;47.724;18.992;2022-12-16T13:47:35;96302.77;;;2.61;100.0
62293;BME280;48292;47.724;18.992;2022-12-16T13:52:43;96302.77;;;2.61;100.0
62293;BME280;48292;47.724;18.992;2022-12-16T13:57:47;96308.94;;;2.52;100.0
62293;BME280;48292;47.724;18.992;2022-12-16T14:02:50;96308.94;;;2.52;100.0
62293;BME280;48292;47.724;18.992;2022-12-16T14:07:53;96394.05;;;2.73;100.0
62293;BME280;48292;47.724;18.992;2022-12-16T14:12:57;96371.42;;;2.22;100.0
62293;BME280;48292;47.724;18.992;2022-12-16T14:18:03;96371.42;;;2.22;100.0
62293;BME280;48292;47.724;18.992;2022-12-16T14:23:11;96387.28;;;2.06;100.0
62293;BME280;48292;47.724;18.992;2022-12-16T14:28:18;96387.28;;;2.06;100.0
62293;BME280;48292;47.724;18.992;2022-12-16T14:33:23;96364.63;;;1.85;100.0
62293;BME280;48292;47.724;18.992;2022-12-16T14:38:27;96364.63;;;1.85;100.0
62293;BME280;48292;47.724;18.992;2022-12-16T14:43:29;96371.56;;;1.59;100.0
62293;BME280;48292;47.724;18.992;2022-12-16T14:48:33;96371.56;;;1.59;100.0
62293;BME280;48292;47.724;18.992;2022-12-16T14:53:35;96400.34;;;1.8;100.0
62293;BME280;48292;47.724;18.992;2022-12-16T14:58:39;96400.34;;;1.8;100.0
62293;BME280;48292;47.724;18.992;2022-12-16T15:03:41;96397.0;;;1.6;100.0
62293;BME280;48292;47.724;18.992;2022-12-16T15:08:47;96432.94;;;1.97;100.0
62293;BME280;48292;47.724;18.992;2022-12-16T15:13:50;96432.94;;;1.97;100.0
62293;BME280;48292;47.724;18.992;2022-12-16T15:19:03;96449.39;;;1.95;100.0
62293;BME280;48292;47.724;18.992;2022-12-16T15:24:06;96449.39;;;1.95;100.0
62293;BME280;48292;47.724;18.992;2022-12-16T15:34:21;96447.04;;;1.88;100.0
62293;BME280;48292;47.724;18.992;2022-12-16T15:39:25;96476.47;;;1.86;100.0
62293;BME280;48292;47.724;18.992;2022-12-16T15:44:27;96476.47;;;1.86;100.0
62293;BME280;48292;47.724;18.992;2022-12-16T15:49:30;96495.41;;;1.68;100.0
62293;BME280;48292;47.724;18.992;2022-12-16T15:54:38;96484.36;;;1.54;100.0
62293;BME280;48292;47.724;18.992;2022-12-16T15:59:40;96484.36;;;1.54;100.0
62293;BME280;48292;47.724;18.992;2022-12-16T16:04:44;96494.3;;;1.46;100.0
62293;BME280;48292;47.724;18.992;2022-12-16T16:09:46;96494.3;;;1.46;100.0
62293;BME280;48292;47.724;18.992;2022-12-16T16:14:47;96510.66;;;1.43;100.0
62293;BME280;48292;47.724;18.992;2022-12-16T16:19:49;96510.66;;;1.43;100.0
62293;BME280;48292;47.724;18.992;2022-12-16T16:24:51;96473.27;;;1.36;100.0
62293;BME280;48292;47.724;18.992;2022-12-16T16:29:53;96473.27;;;1.36;100.0
62293;BME280;48292;47.724;18.992;2022-12-16T16:34:55;96483.76;;;1.26;100.0
62293;BME280;48292;47.724;18.992;2022-12-16T16:39:56;96483.76;;;1.26;100.0
62293;BME280;48292;47.724;18.992;2022-12-16T16:44:58;96483.91;;;1.3;100.0
62293;BME280;48292;47.724;18.992;2022-12-16T16:50:00;96505.94;;;1.21;100.0
62293;BME280;48292;47.724;18.992;2022-12-16T16:55:03;96505.94;;;1.21;100.0
62293;BME280;48292;47.724;18.992;2022-12-16T17:00:07;96537.27;;;1.15;100.0
62293;BME280;48292;47.724;18.992;2022-12-16T17:05:10;96537.27;;;1.15;100.0
62293;BME280;48292;47.724;18.992;2022-12-16T17:10:12;96545.05;;;1.16;100.0
62293;BME280;48292;47.724;18.992;2022-12-16T17:15:15;96545.05;;;1.16;100.0
62293;BME280;48292;47.724;18.992;2022-12-16T17:20:17;96547.23;;;1.09;100.0
62293;BME280;48292;47.724;18.992;2022-12-16T17:25:19;96547.23;;;1.09;100.0
62293;BME280;48292;47.724;18.992;2022-12-16T17:30:21;96548.66;;;1.07;100.0
62293;BME280;48292;47.724;18.992;2022-12-16T17:35:23;96551.07;;;1.09;100.0
62293;BME280;48292;47.724;18.992;2022-12-16T17:40:25;96551.07;;;1.09;100.0
62293;BME280;48292;47.724;18.992;2022-12-16T17:45:27;96579.38;;;1.14;100.0
62293;BME280;48292;47.724;18.992;2022-12-16T17:50:29;96579.38;;;1.14;100.0
62293;BME280;48292;47.724;18.992;2022-12-16T17:55:32;96574.98;;;1.09;100.0
62293;BME280;48292;47.724;18.992;2022-12-16T18:00:34;96574.98;;;1.09;100.0
62293;BME280;48292;47.724;18.992;2022-12-16T18:05:36;96574.3;;;1.07;100.0
62293;BME280;48292;47.724;18.992;2022-12-16T18:10:42;96574.3;;;1.07;100.0
62293;BME280;48292;47.724;18.992;2022-12-16T18:20:50;96562.8;;;1.05;100.0
62293;BME280;48292;47.724;18.992;2022-12-16T18:25:56;96555.13;;;1.07;100.0
62293;BME280;48292;47.724;18.992;2022-12-16T18:31:02;96574.17;;;1.05;100.0
62293;BME280;48292;47.724;18.992;2022-12-16T18:36:05;96574.17;;;1.05;100.0
62293;BME280;48292;47.724;18.992;2022-12-16T18:41:11;96575.14;;;0.98;100.0
62293;BME280;48292;47.724;18.992;2022-12-16T18:46:14;96575.14;;;0.98;100.0
62293;BME280;48292;47.724;18.992;2022-12-16T18:51:17;96570.02;;;0.91;100.0
62293;BME280;48292;47.724;18.992;2022-12-16T18:56:21;96570.02;;;0.91;100.0
62293;BME280;48292;47.724;18.992;2022-12-16T19:01:23;96571.31;;;0.93;100.0
62293;BME280;48292;47.724;18.992;2022-12-16T19:06:27;96571.31;;;0.93;100.0
62293;BME280;48292;47.724;18.992;2022-12-16T19:11:29;96571.52;;;0.99;100.0
62293;BME280;48292;47.724;18.992;2022-12-16T19:16:32;96571.52;;;0.99;100.0
62293;BME280;48292;47.724;18.992;2022-12-16T19:21:34;96594.48;;;0.93;100.0
62293;BME280;48292;47.724;18.992;2022-12-16T19:26:37;96623.84;;;1.0;100.0
62293;BME280;48292;47.724;18.992;2022-12-16T19:31:41;96623.84;;;1.0;100.0
62293;BME280;48292;47.724;18.992;2022-12-16T19:36:43;96614.23;;;0.94;100.0
62293;BME280;48292;47.724;18.992;2022-12-16T19:41:48;96614.23;;;0.94;100.0
62293;BME280;48292;47.724;18.992;2022-12-16T19:46:52;96620.79;;;0.94;100.0
62293;BME280;48292;47.724;18.992;2022-12-16T19:51:58;96620.79;;;0.94;100.0
62293;BME280;48292;47.724;18.992;2022-12-16T19:57:00;96613.7;;;0.92;100.0
62293;BME280;48292;47.724;18.992;2022-12-16T20:02:03;96613.7;;;0.92;100.0
62293;BME280;48292;47.724;18.992;2022-12-16T20:07:06;96617.78;;;0.87;100.0
62293;BME280;48292;47.724;18.992;2022-12-16T20:12:10;96623.9;;;0.79;100.0
62293;BME280;48292;47.724;18.992;2022-12-16T20:17:13;96623.9;;;0.79;100.0
62293;BME280;48292;47.724;18.992;2022-12-16T20:22:17;96636.59;;;0.7;100.0
62293;BME280;48292;47.724;18.992;2022-12-16T20:27:20;96636.59;;;0.7;100.0
62293;BME280;48292;47.724;18.992;2022-12-16T20:32:21;96654.43;;;0.61;100.0
62293;BME280;48292;47.724;18.992;2022-12-16T20:37:25;96654.43;;;0.61;100.0
62293;BME280;48292;47.724;18.992;2022-12-16T20:42:28;96651.9;;;0.61;100.0
62293;BME280;48292;47.724;18.992;2022-12-16T20:47:30;96651.9;;;0.61;100.0
62293;BME280;48292;47.724;18.992;2022-12-16T20:52:33;96655.06;;;0.49;100.0
62293;BME280;48292;47.724;18.992;2022-12-16T20:57:35;96655.06;;;0.49;100.0
62293;BME280;48292;47.724;18.992;2022-12-16T21:02:37;96665.77;;;0.37;100.0
62293;BME280;48292;47.724;18.992;2022-12-16T21:07:40;96653.38;;;0.19;100.0
62293;BME280;48292;47.724;18.992;2022-12-16T21:12:42;96653.38;;;0.19;100.0
62293;BME280;48292;47.724;18.992;2022-12-16T21:17:44;96659.66;;;0.05;100.0
62293;BME280;48292;47.724;18.992;2022-12-16T21:22:47;96659.66;;;0.05;100.0
62293;BME280;48292;47.724;18.992;2022-12-16T21:27:49;96675.3;;;0.01;100.0
62293;BME280;48292;47.724;18.992;2022-12-16T21:32:51;96675.3;;;0.01;100.0
62293;BME280;48292;47.724;18.992;2022-12-16T21:37:57;96683.62;;;0.03;100.0
62293;BME280;48292;47.724;18.992;2022-12-16T21:42:59;96683.62;;;0.03;100.0
62293;BME280;48292;47.724;18.992;2022-12-16T21:48:01;96677.59;;;-0.05;100.0
62293;BME280;48292;47.724;18.992;2022-12-16T21:53:03;96677.59;;;-0.05;100.0
62293;BME280;48292;47.724;18.992;2022-12-16T21:58:08;96677.59;;;-0.05;100.0
62293;BME280;48292;47.724;18.992;2022-12-16T22:03:11;96677.59;;;-0.05;100.0
62293;BME280;48292;47.724;18.992;2022-12-16T22:08:13;96677.59;;;-0.05;100.0
62293;BME280;48292;47.724;18.992;2022-12-16T22:13:15;96677.59;;;-0.05;100.0
62293;BME280;48292;47.724;18.992;2022-12-16T22:18:17;96677.59;;;-0.05;100.0
62293;BME280;48292;47.724;18.992;2022-12-16T22:23:19;96677.59;;;-0.05;100.0
62293;BME280;48292;47.724;18.992;2022-12-16T22:28:25;96677.59;;;-0.05;100.0
62293;BME280;48292;47.724;18.992;2022-12-16T22:33:27;96677.59;;;-0.05;100.0
62293;BME280;48292;47.724;18.992;2022-12-16T22:38:30;96677.59;;;-0.05;100.0
62293;BME280;48292;47.724;18.992;2022-12-16T22:43:32;96677.59;;;-0.05;100.0
